sensor_id;sensor_type;location;lat;lon;timestamp;P1;durP1;ratioP1;P2;durP2;ratioP2
6997;SDS011;3539;47.982;12.238;2022-09-04T00:00:29;1.83;;;1.37;;
6997;SDS011;3539;47.982;12.238;2022-09-04T00:03:14;1.50;;;1.40;;
6997;SDS011;3539;47.982;12.238;2022-09-04T00:09:10;1.60;;;1.50;;
6997;SDS011;3539;47.982;12.238;2022-09-04T00:11:56;1.37;;;1.27;;
6997;SDS011;3539;47.982;12.238;2022-09-04T00:14:42;1.57;;;1.30;;
6997;SDS011;3539;47.982;12.238;2022-09-04T00:17:17;1.40;;;1.30;;
6997;SDS011;3539;47.982;12.238;2022-09-04T00:20:01;1.77;;;1.40;;
6997;SDS011;3539;47.982;12.238;2022-09-04T00:22:41;2.60;;;1.40;;
6997;SDS011;3539;47.982;12.238;2022-09-04T01:06:38;1.83;;;1.00;;
6997;SDS011;3539;47.982;12.238;2022-09-04T01:09:43;1.00;;;1.00;;
6997;SDS011;3539;47.982;12.238;2022-09-04T01:12:24;1.30;;;1.20;;
6997;SDS011;3539;47.982;12.238;2022-09-04T01:14:59;1.00;;;1.00;;
6997;SDS011;3539;47.982;12.238;2022-09-04T01:17:40;1.27;;;1.13;;
6997;SDS011;3539;47.982;12.238;2022-09-04T01:20:26;0.90;;;0.90;;
6997;SDS011;3539;47.982;12.238;2022-09-04T01:23:35;1.10;;;1.10;;
6997;SDS011;3539;47.982;12.238;2022-09-04T01:26:26;1.00;;;1.00;;
6997;SDS011;3539;47.982;12.238;2022-09-04T01:29:02;2.20;;;1.00;;
6997;SDS011;3539;47.982;12.238;2022-09-04T01:31:42;0.77;;;0.77;;
6997;SDS011;3539;47.982;12.238;2022-09-04T01:34:33;1.00;;;1.00;;
6997;SDS011;3539;47.982;12.238;2022-09-04T01:40:26;0.87;;;0.87;;
6997;SDS011;3539;47.982;12.238;2022-09-04T01:43:06;0.90;;;0.90;;
6997;SDS011;3539;47.982;12.238;2022-09-04T01:48:44;0.90;;;0.80;;
6997;SDS011;3539;47.982;12.238;2022-09-04T01:51:22;0.90;;;0.90;;
6997;SDS011;3539;47.982;12.238;2022-09-04T01:54:10;1.00;;;1.00;;
6997;SDS011;3539;47.982;12.238;2022-09-04T01:56:58;1.07;;;0.97;;
6997;SDS011;3539;47.982;12.238;2022-09-04T02:05:49;0.80;;;0.80;;
6997;SDS011;3539;47.982;12.238;2022-09-04T02:08:57;0.77;;;0.77;;
6997;SDS011;3539;47.982;12.238;2022-09-04T02:11:44;1.00;;;0.87;;
6997;SDS011;3539;47.982;12.238;2022-09-04T02:14:31;0.70;;;0.70;;
6997;SDS011;3539;47.982;12.238;2022-09-04T02:17:15;0.77;;;0.70;;
6997;SDS011;3539;47.982;12.238;2022-09-04T02:19:54;0.60;;;0.60;;
6997;SDS011;3539;47.982;12.238;2022-09-04T02:22:31;0.87;;;0.87;;
6997;SDS011;3539;47.982;12.238;2022-09-04T02:25:17;2.87;;;0.90;;
6997;SDS011;3539;47.982;12.238;2022-09-04T02:28:13;0.80;;;0.80;;
6997;SDS011;3539;47.982;12.238;2022-09-04T02:31:04;0.73;;;0.73;;
6997;SDS011;3539;47.982;12.238;2022-09-04T02:33:51;1.07;;;0.73;;
6997;SDS011;3539;47.982;12.238;2022-09-04T02:36:41;0.70;;;0.70;;
6997;SDS011;3539;47.982;12.238;2022-09-04T02:39:24;0.80;;;0.80;;
6997;SDS011;3539;47.982;12.238;2022-09-04T02:41:58;0.90;;;0.90;;
6997;SDS011;3539;47.982;12.238;2022-09-04T02:44:39;0.70;;;0.70;;
6997;SDS011;3539;47.982;12.238;2022-09-04T02:47:26;2.50;;;0.80;;
6997;SDS011;3539;47.982;12.238;2022-09-04T02:50:02;0.80;;;0.80;;
6997;SDS011;3539;47.982;12.238;2022-09-04T02:52:41;0.80;;;0.80;;
6997;SDS011;3539;47.982;12.238;2022-09-04T02:55:18;1.00;;;0.90;;
6997;SDS011;3539;47.982;12.238;2022-09-04T02:57:55;5.57;;;1.20;;
6997;SDS011;3539;47.982;12.238;2022-09-04T03:00:29;1.10;;;1.00;;
6997;SDS011;3539;47.982;12.238;2022-09-04T03:03:04;0.87;;;0.87;;
6997;SDS011;3539;47.982;12.238;2022-09-04T03:05:52;1.80;;;0.80;;
6997;SDS011;3539;47.982;12.238;2022-09-04T03:08:42;1.10;;;0.80;;
6997;SDS011;3539;47.982;12.238;2022-09-04T03:11:32;1.60;;;0.87;;
6997;SDS011;3539;47.982;12.238;2022-09-04T03:14:16;0.73;;;0.73;;
6997;SDS011;3539;47.982;12.238;2022-09-04T03:17:04;1.00;;;0.90;;
6997;SDS011;3539;47.982;12.238;2022-09-04T03:19:35;0.70;;;0.70;;
6997;SDS011;3539;47.982;12.238;2022-09-04T03:22:11;1.03;;;1.00;;
6997;SDS011;3539;47.982;12.238;2022-09-04T03:38:12;1.00;;;1.00;;
6997;SDS011;3539;47.982;12.238;2022-09-04T03:41:02;1.20;;;1.10;;
6997;SDS011;3539;47.982;12.238;2022-09-04T03:43:55;0.90;;;0.90;;
6997;SDS011;3539;47.982;12.238;2022-09-04T03:46:47;1.37;;;1.03;;
6997;SDS011;3539;47.982;12.238;2022-09-04T03:49:56;1.00;;;0.90;;
6997;SDS011;3539;47.982;12.238;2022-09-04T03:52:44;2.20;;;1.00;;
6997;SDS011;3539;47.982;12.238;2022-09-04T04:02:10;0.80;;;0.80;;
6997;SDS011;3539;47.982;12.238;2022-09-04T04:08:14;2.00;;;1.17;;
6997;SDS011;3539;47.982;12.238;2022-09-04T04:10:55;2.60;;;1.10;;
6997;SDS011;3539;47.982;12.238;2022-09-04T04:13:35;1.63;;;1.17;;
6997;SDS011;3539;47.982;12.238;2022-09-04T04:16:24;1.30;;;1.20;;
6997;SDS011;3539;47.982;12.238;2022-09-04T04:25:43;3.53;;;1.20;;
6997;SDS011;3539;47.982;12.238;2022-09-04T04:28:43;1.30;;;1.20;;
6997;SDS011;3539;47.982;12.238;2022-09-04T04:31:29;1.00;;;1.00;;
6997;SDS011;3539;47.982;12.238;2022-09-04T04:34:30;2.53;;;1.10;;
6997;SDS011;3539;47.982;12.238;2022-09-04T04:37:01;1.30;;;1.20;;
6997;SDS011;3539;47.982;12.238;2022-09-04T04:39:33;0.90;;;0.90;;
6997;SDS011;3539;47.982;12.238;2022-09-04T04:45:03;1.67;;;1.27;;
6997;SDS011;3539;47.982;12.238;2022-09-04T04:51:14;2.50;;;1.43;;
6997;SDS011;3539;47.982;12.238;2022-09-04T04:53:51;1.67;;;1.57;;
6997;SDS011;3539;47.982;12.238;2022-09-04T04:56:28;3.40;;;1.40;;
6997;SDS011;3539;47.982;12.238;2022-09-04T05:02:25;0.90;;;0.90;;
6997;SDS011;3539;47.982;12.238;2022-09-04T05:05:15;1.10;;;1.00;;
6997;SDS011;3539;47.982;12.238;2022-09-04T05:08:05;0.90;;;0.90;;
6997;SDS011;3539;47.982;12.238;2022-09-04T05:11:11;1.13;;;1.10;;
6997;SDS011;3539;47.982;12.238;2022-09-04T05:14:09;2.57;;;1.00;;
6997;SDS011;3539;47.982;12.238;2022-09-04T07:31:47;2.90;;;2.70;;
6997;SDS011;3539;47.982;12.238;2022-09-04T07:34:34;3.73;;;3.20;;
6997;SDS011;3539;47.982;12.238;2022-09-04T07:37:22;3.10;;;2.80;;
6997;SDS011;3539;47.982;12.238;2022-09-04T07:40:07;3.13;;;2.83;;
6997;SDS011;3539;47.982;12.238;2022-09-04T07:42:43;5.17;;;3.10;;
6997;SDS011;3539;47.982;12.238;2022-09-04T07:45:17;3.10;;;2.90;;
6997;SDS011;3539;47.982;12.238;2022-09-04T07:47:53;3.93;;;2.97;;
6997;SDS011;3539;47.982;12.238;2022-09-04T07:50:30;3.30;;;3.00;;
6997;SDS011;3539;47.982;12.238;2022-09-04T07:53:03;2.87;;;2.43;;
6997;SDS011;3539;47.982;12.238;2022-09-04T07:55:42;4.45;;;3.33;;
6997;SDS011;3539;47.982;12.238;2022-09-04T07:58:36;2.80;;;2.60;;
6997;SDS011;3539;47.982;12.238;2022-09-04T08:04:13;3.10;;;2.80;;
6997;SDS011;3539;47.982;12.238;2022-09-04T08:07:10;4.20;;;2.87;;
6997;SDS011;3539;47.982;12.238;2022-09-04T08:12:51;2.57;;;2.37;;
6997;SDS011;3539;47.982;12.238;2022-09-04T08:15:26;3.23;;;2.57;;
6997;SDS011;3539;47.982;12.238;2022-09-04T08:18:04;3.43;;;2.50;;
6997;SDS011;3539;47.982;12.238;2022-09-04T08:20:43;3.20;;;2.90;;
6997;SDS011;3539;47.982;12.238;2022-09-04T08:23:29;3.03;;;2.83;;
6997;SDS011;3539;47.982;12.238;2022-09-04T08:26:08;3.40;;;2.47;;
6997;SDS011;3539;47.982;12.238;2022-09-04T08:28:53;3.63;;;3.00;;
6997;SDS011;3539;47.982;12.238;2022-09-04T08:31:51;3.20;;;2.90;;
6997;SDS011;3539;47.982;12.238;2022-09-04T08:34:47;3.10;;;2.80;;
6997;SDS011;3539;47.982;12.238;2022-09-04T08:37:23;3.17;;;2.87;;
6997;SDS011;3539;47.982;12.238;2022-09-04T08:39:55;3.53;;;2.40;;
6997;SDS011;3539;47.982;12.238;2022-09-04T08:42:56;3.97;;;2.27;;
6997;SDS011;3539;47.982;12.238;2022-09-04T08:45:44;2.50;;;2.30;;
6997;SDS011;3539;47.982;12.238;2022-09-04T08:48:45;2.77;;;2.57;;
6997;SDS011;3539;47.982;12.238;2022-09-04T08:51:42;2.57;;;2.37;;
6997;SDS011;3539;47.982;12.238;2022-09-04T08:54:28;2.70;;;2.50;;
6997;SDS011;3539;47.982;12.238;2022-09-04T09:00:11;2.50;;;2.30;;
6997;SDS011;3539;47.982;12.238;2022-09-04T09:06:11;2.40;;;2.20;;
6997;SDS011;3539;47.982;12.238;2022-09-04T09:12:23;2.30;;;2.10;;
6997;SDS011;3539;47.982;12.238;2022-09-04T09:15:18;2.30;;;2.10;;
6997;SDS011;3539;47.982;12.238;2022-09-04T09:18:01;2.47;;;1.97;;
6997;SDS011;3539;47.982;12.238;2022-09-04T09:20:29;2.00;;;1.90;;
6997;SDS011;3539;47.982;12.238;2022-09-04T09:23:18;2.10;;;1.90;;
6997;SDS011;3539;47.982;12.238;2022-09-04T09:25:49;2.77;;;1.90;;
6997;SDS011;3539;47.982;12.238;2022-09-04T09:31:52;1.80;;;1.57;;
6997;SDS011;3539;47.982;12.238;2022-09-04T09:38:13;2.00;;;1.77;;
6997;SDS011;3539;47.982;12.238;2022-09-04T09:50:19;1.60;;;1.50;;
6997;SDS011;3539;47.982;12.238;2022-09-04T09:56:22;2.93;;;1.60;;
6997;SDS011;3539;47.982;12.238;2022-09-04T09:59:13;1.53;;;1.43;;
6997;SDS011;3539;47.982;12.238;2022-09-04T10:02:11;1.80;;;1.70;;
6997;SDS011;3539;47.982;12.238;2022-09-04T10:05:10;1.73;;;1.63;;
6997;SDS011;3539;47.982;12.238;2022-09-04T10:08:02;1.70;;;1.60;;
6997;SDS011;3539;47.982;12.238;2022-09-04T10:11:00;1.80;;;1.70;;
6997;SDS011;3539;47.982;12.238;2022-09-04T10:17:14;3.47;;;1.90;;
6997;SDS011;3539;47.982;12.238;2022-09-04T10:32:21;2.63;;;2.05;;
6997;SDS011;3539;47.982;12.238;2022-09-04T10:35:19;2.33;;;1.90;;
6997;SDS011;3539;47.982;12.238;2022-09-04T10:37:59;2.00;;;1.80;;
6997;SDS011;3539;47.982;12.238;2022-09-04T10:40:38;2.85;;;1.77;;
6997;SDS011;3539;47.982;12.238;2022-09-04T10:46:05;2.07;;;1.90;;
6997;SDS011;3539;47.982;12.238;2022-09-04T10:48:54;2.67;;;2.20;;
6997;SDS011;3539;47.982;12.238;2022-09-04T10:51:54;1.95;;;1.77;;
6997;SDS011;3539;47.982;12.238;2022-09-04T10:54:37;2.25;;;1.70;;
6997;SDS011;3539;47.982;12.238;2022-09-04T10:57:31;2.15;;;1.77;;
6997;SDS011;3539;47.982;12.238;2022-09-04T11:00:11;1.73;;;1.60;;
6997;SDS011;3539;47.982;12.238;2022-09-04T11:03:09;2.10;;;1.73;;
6997;SDS011;3539;47.982;12.238;2022-09-04T11:09:13;3.13;;;1.70;;
6997;SDS011;3539;47.982;12.238;2022-09-04T11:12:05;1.60;;;1.50;;
6997;SDS011;3539;47.982;12.238;2022-09-04T11:15:06;2.28;;;1.50;;
6997;SDS011;3539;47.982;12.238;2022-09-04T11:23:53;3.60;;;1.42;;
6997;SDS011;3539;47.982;12.238;2022-09-04T11:36:21;1.95;;;1.50;;
6997;SDS011;3539;47.982;12.238;2022-09-04T11:39:38;2.42;;;1.48;;
6997;SDS011;3539;47.982;12.238;2022-09-04T11:42:32;1.60;;;1.50;;
6997;SDS011;3539;47.982;12.238;2022-09-04T11:45:12;1.30;;;1.20;;
6997;SDS011;3539;47.982;12.238;2022-09-04T11:48:10;1.98;;;1.60;;
6997;SDS011;3539;47.982;12.238;2022-09-04T11:54:39;1.80;;;1.70;;
6997;SDS011;3539;47.982;12.238;2022-09-04T11:57:28;1.70;;;1.60;;
6997;SDS011;3539;47.982;12.238;2022-09-04T12:00:05;2.20;;;1.50;;
6997;SDS011;3539;47.982;12.238;2022-09-04T12:02:55;1.70;;;1.60;;
6997;SDS011;3539;47.982;12.238;2022-09-04T12:12:25;1.92;;;1.50;;
6997;SDS011;3539;47.982;12.238;2022-09-04T12:15:14;1.30;;;1.20;;
6997;SDS011;3539;47.982;12.238;2022-09-04T12:20:43;2.30;;;1.60;;
6997;SDS011;3539;47.982;12.238;2022-09-04T12:32:31;1.40;;;1.30;;
6997;SDS011;3539;47.982;12.238;2022-09-04T12:35:27;1.92;;;1.40;;
6997;SDS011;3539;47.982;12.238;2022-09-04T12:38:10;1.60;;;1.48;;
6997;SDS011;3539;47.982;12.238;2022-09-04T12:40:49;1.55;;;1.30;;
6997;SDS011;3539;47.982;12.238;2022-09-04T12:43:23;1.48;;;1.38;;
6997;SDS011;3539;47.982;12.238;2022-09-04T12:46:07;1.42;;;1.33;;
6997;SDS011;3539;47.982;12.238;2022-09-04T12:48:51;2.42;;;1.40;;
6997;SDS011;3539;47.982;12.238;2022-09-04T12:51:28;1.48;;;1.30;;
6997;SDS011;3539;47.982;12.238;2022-09-04T12:54:02;1.75;;;1.30;;
6997;SDS011;3539;47.982;12.238;2022-09-04T12:56:57;1.75;;;1.20;;
6997;SDS011;3539;47.982;12.238;2022-09-04T12:59:39;1.52;;;1.42;;
6997;SDS011;3539;47.982;12.238;2022-09-04T13:02:20;1.60;;;1.50;;
6997;SDS011;3539;47.982;12.238;2022-09-04T13:04:58;1.40;;;1.30;;
6997;SDS011;3539;47.982;12.238;2022-09-04T13:07:37;1.88;;;1.40;;
6997;SDS011;3539;47.982;12.238;2022-09-04T13:10:14;1.70;;;1.48;;
6997;SDS011;3539;47.982;12.238;2022-09-04T13:13:13;2.58;;;1.40;;
6997;SDS011;3539;47.982;12.238;2022-09-04T13:15:45;1.50;;;1.23;;
6997;SDS011;3539;47.982;12.238;2022-09-04T13:18:21;2.67;;;1.48;;
6997;SDS011;3539;47.982;12.238;2022-09-04T13:20:55;2.45;;;1.52;;
6997;SDS011;3539;47.982;12.238;2022-09-04T13:23:32;1.70;;;1.23;;
6997;SDS011;3539;47.982;12.238;2022-09-04T13:26:14;1.33;;;1.23;;
6997;SDS011;3539;47.982;12.238;2022-09-04T13:28:55;1.30;;;1.20;;
6997;SDS011;3539;47.982;12.238;2022-09-04T13:32:06;1.42;;;1.30;;
6997;SDS011;3539;47.982;12.238;2022-09-04T13:35:01;2.00;;;1.43;;
6997;SDS011;3539;47.982;12.238;2022-09-04T13:37:35;1.40;;;1.30;;
6997;SDS011;3539;47.982;12.238;2022-09-04T13:40:13;1.40;;;1.30;;
6997;SDS011;3539;47.982;12.238;2022-09-04T13:43:02;1.35;;;1.25;;
6997;SDS011;3539;47.982;12.238;2022-09-04T13:46:04;1.50;;;1.40;;
6997;SDS011;3539;47.982;12.238;2022-09-04T13:48:35;1.50;;;1.40;;
6997;SDS011;3539;47.982;12.238;2022-09-04T13:51:11;2.22;;;1.70;;
6997;SDS011;3539;47.982;12.238;2022-09-04T13:53:57;1.52;;;1.42;;
6997;SDS011;3539;47.982;12.238;2022-09-04T13:56:29;1.67;;;1.58;;
6997;SDS011;3539;47.982;12.238;2022-09-04T13:59:18;3.53;;;1.60;;
6997;SDS011;3539;47.982;12.238;2022-09-04T14:01:48;1.50;;;1.40;;
6997;SDS011;3539;47.982;12.238;2022-09-04T14:04:25;1.77;;;1.52;;
6997;SDS011;3539;47.982;12.238;2022-09-04T14:09:59;3.17;;;1.70;;
6997;SDS011;3539;47.982;12.238;2022-09-04T14:12:41;2.40;;;1.40;;
6997;SDS011;3539;47.982;12.238;2022-09-04T14:15:24;1.77;;;1.67;;
6997;SDS011;3539;47.982;12.238;2022-09-04T14:18:42;1.50;;;1.40;;
6997;SDS011;3539;47.982;12.238;2022-09-04T14:21:34;1.70;;;1.60;;
6997;SDS011;3539;47.982;12.238;2022-09-04T14:24:22;1.63;;;1.47;;
6997;SDS011;3539;47.982;12.238;2022-09-04T14:26:59;1.50;;;1.40;;
6997;SDS011;3539;47.982;12.238;2022-09-04T14:29:33;1.83;;;1.50;;
6997;SDS011;3539;47.982;12.238;2022-09-04T14:32:14;1.63;;;1.53;;
6997;SDS011;3539;47.982;12.238;2022-09-04T14:34:49;1.73;;;1.30;;
6997;SDS011;3539;47.982;12.238;2022-09-04T14:37:28;2.90;;;1.40;;
6997;SDS011;3539;47.982;12.238;2022-09-04T14:40:01;2.40;;;1.50;;
6997;SDS011;3539;47.982;12.238;2022-09-04T14:42:38;3.70;;;1.60;;
6997;SDS011;3539;47.982;12.238;2022-09-04T14:45:13;1.67;;;1.43;;
6997;SDS011;3539;47.982;12.238;2022-09-04T14:47:50;1.87;;;1.57;;
6997;SDS011;3539;47.982;12.238;2022-09-04T14:50:20;1.20;;;1.10;;
6997;SDS011;3539;47.982;12.238;2022-09-04T14:52:55;1.90;;;1.27;;
6997;SDS011;3539;47.982;12.238;2022-09-04T14:55:25;1.40;;;1.30;;
6997;SDS011;3539;47.982;12.238;2022-09-04T14:57:57;1.43;;;1.33;;
6997;SDS011;3539;47.982;12.238;2022-09-04T15:00:27;1.47;;;1.37;;
6997;SDS011;3539;47.982;12.238;2022-09-04T15:03:00;1.67;;;1.40;;
6997;SDS011;3539;47.982;12.238;2022-09-04T15:05:32;1.80;;;1.43;;
6997;SDS011;3539;47.982;12.238;2022-09-04T15:08:00;1.73;;;1.40;;
6997;SDS011;3539;47.982;12.238;2022-09-04T15:10:29;1.50;;;1.40;;
6997;SDS011;3539;47.982;12.238;2022-09-04T15:13:19;1.53;;;1.30;;
6997;SDS011;3539;47.982;12.238;2022-09-04T15:15:57;1.67;;;1.30;;
6997;SDS011;3539;47.982;12.238;2022-09-04T15:18:28;1.40;;;1.30;;
6997;SDS011;3539;47.982;12.238;2022-09-04T15:20:58;2.30;;;1.27;;
6997;SDS011;3539;47.982;12.238;2022-09-04T15:23:29;1.60;;;1.50;;
6997;SDS011;3539;47.982;12.238;2022-09-04T15:26:01;1.97;;;1.50;;
6997;SDS011;3539;47.982;12.238;2022-09-04T15:28:33;1.50;;;1.40;;
6997;SDS011;3539;47.982;12.238;2022-09-04T15:31:11;1.63;;;1.53;;
6997;SDS011;3539;47.982;12.238;2022-09-04T15:33:40;1.77;;;1.63;;
6997;SDS011;3539;47.982;12.238;2022-09-04T15:36:09;1.97;;;1.60;;
6997;SDS011;3539;47.982;12.238;2022-09-04T15:38:44;2.00;;;1.40;;
6997;SDS011;3539;47.982;12.238;2022-09-04T15:41:15;2.43;;;1.30;;
6997;SDS011;3539;47.982;12.238;2022-09-04T15:43:49;2.00;;;1.50;;
6997;SDS011;3539;47.982;12.238;2022-09-04T15:46:27;1.80;;;1.50;;
6997;SDS011;3539;47.982;12.238;2022-09-04T15:49:02;1.50;;;1.40;;
6997;SDS011;3539;47.982;12.238;2022-09-04T15:51:42;1.93;;;1.30;;
6997;SDS011;3539;47.982;12.238;2022-09-04T15:54:17;1.23;;;1.17;;
6997;SDS011;3539;47.982;12.238;2022-09-04T15:56:59;1.77;;;1.53;;
6997;SDS011;3539;47.982;12.238;2022-09-04T15:59:34;1.47;;;1.37;;
6997;SDS011;3539;47.982;12.238;2022-09-04T16:02:10;1.60;;;1.47;;
6997;SDS011;3539;47.982;12.238;2022-09-04T16:04:46;1.20;;;1.10;;
6997;SDS011;3539;47.982;12.238;2022-09-04T16:07:22;1.40;;;1.30;;
6997;SDS011;3539;47.982;12.238;2022-09-04T16:10:02;1.47;;;1.37;;
6997;SDS011;3539;47.982;12.238;2022-09-04T16:12:35;1.20;;;1.10;;
6997;SDS011;3539;47.982;12.238;2022-09-04T16:15:10;1.57;;;1.30;;
6997;SDS011;3539;47.982;12.238;2022-09-04T16:17:42;1.30;;;1.20;;
6997;SDS011;3539;47.982;12.238;2022-09-04T16:20:13;1.40;;;1.30;;
6997;SDS011;3539;47.982;12.238;2022-09-04T16:22:46;2.60;;;1.40;;
6997;SDS011;3539;47.982;12.238;2022-09-04T16:25:19;1.60;;;1.50;;
6997;SDS011;3539;47.982;12.238;2022-09-04T16:27:49;2.60;;;1.33;;
6997;SDS011;3539;47.982;12.238;2022-09-04T16:30:29;1.83;;;1.30;;
6997;SDS011;3539;47.982;12.238;2022-09-04T16:33:06;1.70;;;1.50;;
6997;SDS011;3539;47.982;12.238;2022-09-04T16:35:44;1.73;;;1.47;;
6997;SDS011;3539;47.982;12.238;2022-09-04T16:38:12;1.40;;;1.30;;
6997;SDS011;3539;47.982;12.238;2022-09-04T16:40:41;1.60;;;1.50;;
6997;SDS011;3539;47.982;12.238;2022-09-04T16:43:17;1.97;;;1.57;;
6997;SDS011;3539;47.982;12.238;2022-09-04T16:46:01;1.30;;;1.20;;
6997;SDS011;3539;47.982;12.238;2022-09-04T16:48:34;1.30;;;1.20;;
6997;SDS011;3539;47.982;12.238;2022-09-04T16:51:05;1.67;;;1.50;;
6997;SDS011;3539;47.982;12.238;2022-09-04T16:53:37;1.30;;;1.20;;
6997;SDS011;3539;47.982;12.238;2022-09-04T16:56:10;2.97;;;1.40;;
6997;SDS011;3539;47.982;12.238;2022-09-04T16:58:48;1.53;;;1.30;;
6997;SDS011;3539;47.982;12.238;2022-09-04T17:01:20;1.77;;;1.40;;
6997;SDS011;3539;47.982;12.238;2022-09-04T17:03:54;1.30;;;1.17;;
6997;SDS011;3539;47.982;12.238;2022-09-04T17:06:42;1.33;;;1.23;;
6997;SDS011;3539;47.982;12.238;2022-09-04T17:09:18;2.63;;;1.30;;
6997;SDS011;3539;47.982;12.238;2022-09-04T17:11:50;1.60;;;1.50;;
6997;SDS011;3539;47.982;12.238;2022-09-04T17:14:19;1.40;;;1.30;;
6997;SDS011;3539;47.982;12.238;2022-09-04T17:16:52;1.83;;;1.60;;
6997;SDS011;3539;47.982;12.238;2022-09-04T17:19:21;1.83;;;1.53;;
6997;SDS011;3539;47.982;12.238;2022-09-04T17:22:06;1.80;;;1.60;;
6997;SDS011;3539;47.982;12.238;2022-09-04T17:24:54;1.57;;;1.40;;
6997;SDS011;3539;47.982;12.238;2022-09-04T17:27:25;1.70;;;1.60;;
6997;SDS011;3539;47.982;12.238;2022-09-04T17:30:10;1.60;;;1.50;;
6997;SDS011;3539;47.982;12.238;2022-09-04T17:32:47;2.73;;;1.83;;
6997;SDS011;3539;47.982;12.238;2022-09-04T17:35:24;1.87;;;1.70;;
6997;SDS011;3539;47.982;12.238;2022-09-04T17:37:58;2.23;;;1.60;;
6997;SDS011;3539;47.982;12.238;2022-09-04T17:40:31;1.23;;;1.20;;
6997;SDS011;3539;47.982;12.238;2022-09-04T17:43:05;1.60;;;1.50;;
6997;SDS011;3539;47.982;12.238;2022-09-04T17:45:42;1.63;;;1.53;;
6997;SDS011;3539;47.982;12.238;2022-09-04T17:48:20;2.23;;;1.80;;
6997;SDS011;3539;47.982;12.238;2022-09-04T17:50:50;3.23;;;1.70;;
6997;SDS011;3539;47.982;12.238;2022-09-04T17:53:19;2.80;;;2.00;;
6997;SDS011;3539;47.982;12.238;2022-09-04T17:55:48;2.10;;;1.70;;
6997;SDS011;3539;47.982;12.238;2022-09-04T17:58:20;2.30;;;1.87;;
6997;SDS011;3539;47.982;12.238;2022-09-04T18:00:54;1.87;;;1.70;;
6997;SDS011;3539;47.982;12.238;2022-09-04T18:03:29;1.80;;;1.70;;
6997;SDS011;3539;47.982;12.238;2022-09-04T18:05:59;3.67;;;1.67;;
6997;SDS011;3539;47.982;12.238;2022-09-04T18:08:31;2.77;;;2.30;;
6997;SDS011;3539;47.982;12.238;2022-09-04T18:10:59;1.73;;;1.63;;
6997;SDS011;3539;47.982;12.238;2022-09-04T18:13:31;1.90;;;1.70;;
6997;SDS011;3539;47.982;12.238;2022-09-04T18:16:05;1.63;;;1.53;;
6997;SDS011;3539;47.982;12.238;2022-09-04T18:18:37;1.77;;;1.60;;
6997;SDS011;3539;47.982;12.238;2022-09-04T18:21:07;1.77;;;1.67;;
6997;SDS011;3539;47.982;12.238;2022-09-04T18:23:40;3.77;;;1.80;;
6997;SDS011;3539;47.982;12.238;2022-09-04T18:26:14;1.80;;;1.70;;
6997;SDS011;3539;47.982;12.238;2022-09-04T18:28:45;2.10;;;1.90;;
6997;SDS011;3539;47.982;12.238;2022-09-04T18:31:18;1.60;;;1.50;;
6997;SDS011;3539;47.982;12.238;2022-09-04T18:33:52;2.77;;;1.97;;
6997;SDS011;3539;47.982;12.238;2022-09-04T18:36:25;1.90;;;1.70;;
6997;SDS011;3539;47.982;12.238;2022-09-04T18:38:58;2.10;;;1.90;;
6997;SDS011;3539;47.982;12.238;2022-09-04T18:41:28;2.17;;;1.80;;
6997;SDS011;3539;47.982;12.238;2022-09-04T18:43:59;3.10;;;1.90;;
6997;SDS011;3539;47.982;12.238;2022-09-04T18:46:29;2.20;;;1.90;;
6997;SDS011;3539;47.982;12.238;2022-09-04T18:49:00;2.53;;;2.20;;
6997;SDS011;3539;47.982;12.238;2022-09-04T18:51:30;2.60;;;2.00;;
6997;SDS011;3539;47.982;12.238;2022-09-04T18:54:04;2.20;;;2.00;;
6997;SDS011;3539;47.982;12.238;2022-09-04T18:56:35;1.80;;;1.70;;
6997;SDS011;3539;47.982;12.238;2022-09-04T18:59:09;2.10;;;1.90;;
6997;SDS011;3539;47.982;12.238;2022-09-04T19:01:43;2.27;;;2.07;;
6997;SDS011;3539;47.982;12.238;2022-09-04T19:04:26;2.10;;;1.90;;
6997;SDS011;3539;47.982;12.238;2022-09-04T19:07:09;2.03;;;1.93;;
6997;SDS011;3539;47.982;12.238;2022-09-04T19:09:51;2.90;;;2.20;;
6997;SDS011;3539;47.982;12.238;2022-09-04T19:12:33;2.20;;;1.87;;
6997;SDS011;3539;47.982;12.238;2022-09-04T19:15:23;2.87;;;2.10;;
6997;SDS011;3539;47.982;12.238;2022-09-04T19:17:55;1.83;;;1.70;;
6997;SDS011;3539;47.982;12.238;2022-09-04T19:20:26;2.20;;;2.00;;
6997;SDS011;3539;47.982;12.238;2022-09-04T19:22:57;2.23;;;1.90;;
6997;SDS011;3539;47.982;12.238;2022-09-04T19:25:26;2.37;;;2.17;;
6997;SDS011;3539;47.982;12.238;2022-09-04T19:27:56;2.40;;;2.17;;
6997;SDS011;3539;47.982;12.238;2022-09-04T19:30:28;3.07;;;2.30;;
6997;SDS011;3539;47.982;12.238;2022-09-04T19:33:00;2.60;;;2.10;;
6997;SDS011;3539;47.982;12.238;2022-09-04T19:35:33;2.10;;;1.90;;
6997;SDS011;3539;47.982;12.238;2022-09-04T19:38:03;3.37;;;2.30;;
6997;SDS011;3539;47.982;12.238;2022-09-04T19:40:36;2.30;;;2.10;;
6997;SDS011;3539;47.982;12.238;2022-09-04T19:43:10;3.17;;;2.20;;
6997;SDS011;3539;47.982;12.238;2022-09-04T19:45:53;2.63;;;2.40;;
6997;SDS011;3539;47.982;12.238;2022-09-04T19:48:27;3.43;;;2.10;;
6997;SDS011;3539;47.982;12.238;2022-09-04T19:51:04;2.30;;;2.10;;
6997;SDS011;3539;47.982;12.238;2022-09-04T19:53:41;2.50;;;2.23;;
6997;SDS011;3539;47.982;12.238;2022-09-04T19:56:18;3.67;;;2.27;;
6997;SDS011;3539;47.982;12.238;2022-09-04T19:58:50;2.50;;;2.30;;
6997;SDS011;3539;47.982;12.238;2022-09-04T20:01:21;3.70;;;2.27;;
6997;SDS011;3539;47.982;12.238;2022-09-04T20:03:53;2.77;;;2.50;;
6997;SDS011;3539;47.982;12.238;2022-09-04T20:06:25;3.27;;;2.40;;
6997;SDS011;3539;47.982;12.238;2022-09-04T20:08:56;2.87;;;2.10;;
6997;SDS011;3539;47.982;12.238;2022-09-04T20:11:30;2.77;;;2.00;;
6997;SDS011;3539;47.982;12.238;2022-09-04T20:14:13;2.43;;;2.10;;
6997;SDS011;3539;47.982;12.238;2022-09-04T20:16:55;2.70;;;2.20;;
6997;SDS011;3539;47.982;12.238;2022-09-04T20:19:33;3.07;;;2.20;;
6997;SDS011;3539;47.982;12.238;2022-09-04T20:22:05;2.50;;;2.30;;
6997;SDS011;3539;47.982;12.238;2022-09-04T20:24:39;2.50;;;2.30;;
6997;SDS011;3539;47.982;12.238;2022-09-04T20:27:10;2.97;;;2.50;;
6997;SDS011;3539;47.982;12.238;2022-09-04T20:29:41;2.50;;;2.30;;
6997;SDS011;3539;47.982;12.238;2022-09-04T20:32:11;2.43;;;2.23;;
6997;SDS011;3539;47.982;12.238;2022-09-04T20:34:44;2.40;;;2.20;;
6997;SDS011;3539;47.982;12.238;2022-09-04T20:37:22;3.90;;;1.90;;
6997;SDS011;3539;47.982;12.238;2022-09-04T20:39:55;3.83;;;2.00;;
6997;SDS011;3539;47.982;12.238;2022-09-04T20:42:27;2.10;;;2.00;;
6997;SDS011;3539;47.982;12.238;2022-09-04T20:44:58;2.20;;;2.00;;
6997;SDS011;3539;47.982;12.238;2022-09-04T20:47:29;2.40;;;2.10;;
6997;SDS011;3539;47.982;12.238;2022-09-04T20:50:08;3.20;;;1.90;;
6997;SDS011;3539;47.982;12.238;2022-09-04T20:52:48;2.17;;;1.97;;
6997;SDS011;3539;47.982;12.238;2022-09-04T20:55:23;2.97;;;2.00;;
6997;SDS011;3539;47.982;12.238;2022-09-04T20:57:59;2.53;;;2.00;;
6997;SDS011;3539;47.982;12.238;2022-09-04T21:00:34;3.37;;;2.00;;
6997;SDS011;3539;47.982;12.238;2022-09-04T21:03:06;2.30;;;2.10;;
6997;SDS011;3539;47.982;12.238;2022-09-04T21:05:48;2.10;;;2.00;;
6997;SDS011;3539;47.982;12.238;2022-09-04T21:08:27;2.60;;;2.40;;
6997;SDS011;3539;47.982;12.238;2022-09-04T21:11:00;2.47;;;2.27;;
6997;SDS011;3539;47.982;12.238;2022-09-04T21:13:30;4.37;;;3.03;;
6997;SDS011;3539;47.982;12.238;2022-09-04T21:16:04;3.90;;;3.50;;
6997;SDS011;3539;47.982;12.238;2022-09-04T21:18:44;4.00;;;3.53;;
6997;SDS011;3539;47.982;12.238;2022-09-04T21:21:23;4.30;;;3.90;;
6997;SDS011;3539;47.982;12.238;2022-09-04T21:27:08;4.77;;;3.27;;
6997;SDS011;3539;47.982;12.238;2022-09-04T21:30:05;4.37;;;3.63;;
6997;SDS011;3539;47.982;12.238;2022-09-04T21:35:23;3.47;;;3.17;;
6997;SDS011;3539;47.982;12.238;2022-09-04T21:37:53;4.07;;;3.70;;
6997;SDS011;3539;47.982;12.238;2022-09-04T21:40:34;4.03;;;3.30;;
6997;SDS011;3539;47.982;12.238;2022-09-04T21:43:12;4.57;;;3.40;;
6997;SDS011;3539;47.982;12.238;2022-09-04T21:45:51;3.37;;;3.07;;
6997;SDS011;3539;47.982;12.238;2022-09-04T21:48:39;3.47;;;3.00;;
6997;SDS011;3539;47.982;12.238;2022-09-04T21:51:16;3.63;;;3.33;;
6997;SDS011;3539;47.982;12.238;2022-09-04T22:00:07;3.30;;;3.00;;